Terminal Aerodrome Forecast
Issued by NWS Charleston, WV

Current Version | Previous Version | Text Only | Print | Product List | Glossary On
Versions: 1 2 3 4 5 6 7 8 9 10 11 12 13 14 15 16 17 18 19 20 21 22 23 24
152
FTUS41 KRLX 300617 AAA
TAFPKB
TAF AMD
KPKB 300617Z 3006/0106 07003KT P6SM BKN005 BKN009
     FM301000 09006KT 4SM -SHRA OVC035
     FM301600 10006KT P6SM VCTS BKN060CB
     FM010300 VRB02KT 3SM -SHRA BKN040=

USA.gov is the U.S. government's official web portal to all federal, state and local government web resources and services.